sensor_id;sensor_type;location;lat;lon;timestamp;temperature;humidity
47576;DHT22;33304;52.456;13.328;2023-01-01T00:02:15;16.10;22.70
47576;DHT22;33304;52.456;13.328;2023-01-01T00:04:42;16.10;22.50
47576;DHT22;33304;52.456;13.328;2023-01-01T00:07:09;16.10;22.30
47576;DHT22;33304;52.456;13.328;2023-01-01T00:09:36;16.10;22.60
47576;DHT22;33304;52.456;13.328;2023-01-01T00:12:23;16.00;22.40
47576;DHT22;33304;52.456;13.328;2023-01-01T00:14:50;16.00;22.30
47576;DHT22;33304;52.456;13.328;2023-01-01T00:17:17;16.00;22.30
47576;DHT22;33304;52.456;13.328;2023-01-01T00:19:44;16.00;22.30
47576;DHT22;33304;52.456;13.328;2023-01-01T00:22:11;15.90;21.90
47576;DHT22;33304;52.456;13.328;2023-01-01T00:24:38;16.00;21.90
47576;DHT22;33304;52.456;13.328;2023-01-01T00:27:05;16.00;21.50
47576;DHT22;33304;52.456;13.328;2023-01-01T00:29:33;16.00;21.40
47576;DHT22;33304;52.456;13.328;2023-01-01T00:32:00;16.00;21.40
47576;DHT22;33304;52.456;13.328;2023-01-01T00:34:27;16.00;21.40
47576;DHT22;33304;52.456;13.328;2023-01-01T00:36:55;15.90;21.40
47576;DHT22;33304;52.456;13.328;2023-01-01T00:39:22;16.00;20.80
47576;DHT22;33304;52.456;13.328;2023-01-01T00:41:49;16.00;20.50
47576;DHT22;33304;52.456;13.328;2023-01-01T00:44:16;16.00;20.60
47576;DHT22;33304;52.456;13.328;2023-01-01T00:46:45;16.00;20.10
47576;DHT22;33304;52.456;13.328;2023-01-01T00:49:12;16.00;20.00
47576;DHT22;33304;52.456;13.328;2023-01-01T00:51:39;16.00;19.80
47576;DHT22;33304;52.456;13.328;2023-01-01T00:54:06;16.00;19.60
47576;DHT22;33304;52.456;13.328;2023-01-01T00:56:33;16.00;19.50
47576;DHT22;33304;52.456;13.328;2023-01-01T00:59:01;16.00;19.40
47576;DHT22;33304;52.456;13.328;2023-01-01T01:01:28;16.00;19.40
47576;DHT22;33304;52.456;13.328;2023-01-01T01:03:56;16.00;19.10
47576;DHT22;33304;52.456;13.328;2023-01-01T01:06:23;16.00;19.10
47576;DHT22;33304;52.456;13.328;2023-01-01T01:08:50;16.00;19.10
47576;DHT22;33304;52.456;13.328;2023-01-01T01:11:19;16.00;19.00
47576;DHT22;33304;52.456;13.328;2023-01-01T01:13:49;16.00;19.00
47576;DHT22;33304;52.456;13.328;2023-01-01T01:16:18;15.90;18.80
47576;DHT22;33304;52.456;13.328;2023-01-01T01:18:48;15.90;18.60
47576;DHT22;33304;52.456;13.328;2023-01-01T01:21:18;15.90;18.30
47576;DHT22;33304;52.456;13.328;2023-01-01T01:23:45;15.90;18.60
47576;DHT22;33304;52.456;13.328;2023-01-01T01:26:15;15.90;18.50
47576;DHT22;33304;52.456;13.328;2023-01-01T01:28:43;15.80;18.20
47576;DHT22;33304;52.456;13.328;2023-01-01T01:31:11;15.80;18.00
47576;DHT22;33304;52.456;13.328;2023-01-01T01:33:38;15.90;18.00
47576;DHT22;33304;52.456;13.328;2023-01-01T01:36:05;15.90;17.40
47576;DHT22;33304;52.456;13.328;2023-01-01T01:38:34;15.90;17.50
47576;DHT22;33304;52.456;13.328;2023-01-01T01:41:01;15.90;17.10
47576;DHT22;33304;52.456;13.328;2023-01-01T01:43:49;16.00;16.90
47576;DHT22;33304;52.456;13.328;2023-01-01T01:46:21;16.00;16.60
47576;DHT22;33304;52.456;13.328;2023-01-01T01:48:52;15.90;17.10
47576;DHT22;33304;52.456;13.328;2023-01-01T01:51:26;15.90;16.70
47576;DHT22;33304;52.456;13.328;2023-01-01T01:54:01;15.90;16.50
47576;DHT22;33304;52.456;13.328;2023-01-01T01:56:37;15.90;16.50
47576;DHT22;33304;52.456;13.328;2023-01-01T01:59:05;15.90;16.50
47576;DHT22;33304;52.456;13.328;2023-01-01T02:01:32;15.90;16.50
47576;DHT22;33304;52.456;13.328;2023-01-01T02:04:00;16.00;16.50
47576;DHT22;33304;52.456;13.328;2023-01-01T02:06:29;16.00;16.60
47576;DHT22;33304;52.456;13.328;2023-01-01T02:08:59;15.90;16.50
47576;DHT22;33304;52.456;13.328;2023-01-01T02:11:27;16.00;16.50
47576;DHT22;33304;52.456;13.328;2023-01-01T02:13:55;15.90;16.50
47576;DHT22;33304;52.456;13.328;2023-01-01T02:16:26;15.90;16.50
47576;DHT22;33304;52.456;13.328;2023-01-01T02:18:59;15.90;16.50
47576;DHT22;33304;52.456;13.328;2023-01-01T02:21:31;15.90;16.50
47576;DHT22;33304;52.456;13.328;2023-01-01T02:24:14;16.00;16.50
47576;DHT22;33304;52.456;13.328;2023-01-01T02:26:52;15.90;16.50
47576;DHT22;33304;52.456;13.328;2023-01-01T02:29:31;15.90;16.50
47576;DHT22;33304;52.456;13.328;2023-01-01T02:32:00;15.80;16.40
47576;DHT22;33304;52.456;13.328;2023-01-01T02:34:32;15.90;16.50
47576;DHT22;33304;52.456;13.328;2023-01-01T02:37:03;15.90;16.50
47576;DHT22;33304;52.456;13.328;2023-01-01T02:39:32;15.80;16.40
47576;DHT22;33304;52.456;13.328;2023-01-01T02:42:04;15.80;16.40
47576;DHT22;33304;52.456;13.328;2023-01-01T02:44:38;15.70;16.30
47576;DHT22;33304;52.456;13.328;2023-01-01T02:47:09;15.80;16.40
47576;DHT22;33304;52.456;13.328;2023-01-01T02:49:41;15.80;16.40
47576;DHT22;33304;52.456;13.328;2023-01-01T02:52:18;15.80;16.40
47576;DHT22;33304;52.456;13.328;2023-01-01T02:54:52;15.70;16.30
47576;DHT22;33304;52.456;13.328;2023-01-01T02:57:29;15.80;16.40
47576;DHT22;33304;52.456;13.328;2023-01-01T03:00:03;15.80;16.40
47576;DHT22;33304;52.456;13.328;2023-01-01T03:03:04;15.80;16.40
47576;DHT22;33304;52.456;13.328;2023-01-01T03:05:39;15.80;16.40
47576;DHT22;33304;52.456;13.328;2023-01-01T03:08:31;15.80;16.40
47576;DHT22;33304;52.456;13.328;2023-01-01T03:11:04;15.80;16.40
47576;DHT22;33304;52.456;13.328;2023-01-01T03:13:39;15.80;16.40
47576;DHT22;33304;52.456;13.328;2023-01-01T03:16:15;15.80;16.40
47576;DHT22;33304;52.456;13.328;2023-01-01T03:18:46;15.80;16.40
47576;DHT22;33304;52.456;13.328;2023-01-01T03:21:19;15.70;16.30
47576;DHT22;33304;52.456;13.328;2023-01-01T03:23:49;15.70;16.30
47576;DHT22;33304;52.456;13.328;2023-01-01T03:26:20;15.70;16.30
47576;DHT22;33304;52.456;13.328;2023-01-01T03:28:51;15.70;16.30
47576;DHT22;33304;52.456;13.328;2023-01-01T03:31:24;15.80;16.40
47576;DHT22;33304;52.456;13.328;2023-01-01T03:33:55;15.80;16.40
47576;DHT22;33304;52.456;13.328;2023-01-01T03:36:28;15.80;16.40
47576;DHT22;33304;52.456;13.328;2023-01-01T03:38:58;15.70;16.40
47576;DHT22;33304;52.456;13.328;2023-01-01T03:41:31;15.80;16.40
47576;DHT22;33304;52.456;13.328;2023-01-01T03:44:03;15.70;16.30
47576;DHT22;33304;52.456;13.328;2023-01-01T03:46:35;15.80;16.40
47576;DHT22;33304;52.456;13.328;2023-01-01T03:49:05;15.60;16.30
47576;DHT22;33304;52.456;13.328;2023-01-01T03:51:53;15.60;16.30
47576;DHT22;33304;52.456;13.328;2023-01-01T03:54:29;15.50;16.20
47576;DHT22;33304;52.456;13.328;2023-01-01T03:57:02;15.50;16.20
47576;DHT22;33304;52.456;13.328;2023-01-01T03:59:36;15.50;16.20
47576;DHT22;33304;52.456;13.328;2023-01-01T04:02:07;15.50;16.20
47576;DHT22;33304;52.456;13.328;2023-01-01T04:04:36;15.40;16.20
47576;DHT22;33304;52.456;13.328;2023-01-01T04:07:04;15.40;16.20
47576;DHT22;33304;52.456;13.328;2023-01-01T04:09:33;15.30;16.40
47576;DHT22;33304;52.456;13.328;2023-01-01T04:12:02;15.30;16.90
47576;DHT22;33304;52.456;13.328;2023-01-01T04:14:31;15.30;16.60
47576;DHT22;33304;52.456;13.328;2023-01-01T04:16:59;15.30;16.10
47576;DHT22;33304;52.456;13.328;2023-01-01T04:19:28;15.40;16.20
47576;DHT22;33304;52.456;13.328;2023-01-01T04:21:56;15.30;16.50
47576;DHT22;33304;52.456;13.328;2023-01-01T04:24:23;15.20;16.80
47576;DHT22;33304;52.456;13.328;2023-01-01T04:26:51;15.20;16.90
47576;DHT22;33304;52.456;13.328;2023-01-01T04:29:19;15.20;16.60
47576;DHT22;33304;52.456;13.328;2023-01-01T04:31:46;15.20;17.00
47576;DHT22;33304;52.456;13.328;2023-01-01T04:34:14;15.20;16.70
47576;DHT22;33304;52.456;13.328;2023-01-01T04:36:43;15.20;17.00
47576;DHT22;33304;52.456;13.328;2023-01-01T04:39:10;15.10;17.10
47576;DHT22;33304;52.456;13.328;2023-01-01T04:41:37;15.00;17.20
47576;DHT22;33304;52.456;13.328;2023-01-01T04:44:04;15.10;17.60
47576;DHT22;33304;52.456;13.328;2023-01-01T04:46:31;15.00;17.50
47576;DHT22;33304;52.456;13.328;2023-01-01T04:48:58;14.90;17.70
47576;DHT22;33304;52.456;13.328;2023-01-01T04:51:25;14.90;17.90
47576;DHT22;33304;52.456;13.328;2023-01-01T04:53:54;14.90;17.80
47576;DHT22;33304;52.456;13.328;2023-01-01T04:56:22;14.90;17.70
47576;DHT22;33304;52.456;13.328;2023-01-01T04:58:49;14.90;17.60
47576;DHT22;33304;52.456;13.328;2023-01-01T05:01:18;14.90;17.70
47576;DHT22;33304;52.456;13.328;2023-01-01T05:03:46;14.90;17.60
47576;DHT22;33304;52.456;13.328;2023-01-01T05:06:14;14.90;17.60
47576;DHT22;33304;52.456;13.328;2023-01-01T05:08:43;14.90;17.70
47576;DHT22;33304;52.456;13.328;2023-01-01T05:11:13;14.90;17.90
47576;DHT22;33304;52.456;13.328;2023-01-01T05:13:43;14.90;17.70
47576;DHT22;33304;52.456;13.328;2023-01-01T05:16:12;14.90;17.80
47576;DHT22;33304;52.456;13.328;2023-01-01T05:18:40;14.90;18.10
47576;DHT22;33304;52.456;13.328;2023-01-01T05:21:10;14.90;17.90
47576;DHT22;33304;52.456;13.328;2023-01-01T05:23:38;14.90;17.90
47576;DHT22;33304;52.456;13.328;2023-01-01T05:26:09;14.80;18.10
47576;DHT22;33304;52.456;13.328;2023-01-01T05:28:38;14.90;17.90
47576;DHT22;33304;52.456;13.328;2023-01-01T05:31:06;14.80;17.90
47576;DHT22;33304;52.456;13.328;2023-01-01T05:33:34;14.90;18.00
47576;DHT22;33304;52.456;13.328;2023-01-01T05:36:02;14.80;18.00
47576;DHT22;33304;52.456;13.328;2023-01-01T05:38:30;14.80;18.00
47576;DHT22;33304;52.456;13.328;2023-01-01T05:40:57;14.80;18.20
47576;DHT22;33304;52.456;13.328;2023-01-01T05:43:24;14.80;18.00
47576;DHT22;33304;52.456;13.328;2023-01-01T05:46:00;14.80;18.10
47576;DHT22;33304;52.456;13.328;2023-01-01T05:48:27;14.80;18.00
47576;DHT22;33304;52.456;13.328;2023-01-01T05:51:01;14.80;18.10
47576;DHT22;33304;52.456;13.328;2023-01-01T05:53:28;14.80;18.70
47576;DHT22;33304;52.456;13.328;2023-01-01T05:55:56;14.90;18.10
47576;DHT22;33304;52.456;13.328;2023-01-01T05:58:23;14.90;17.90
47576;DHT22;33304;52.456;13.328;2023-01-01T06:00:51;14.90;17.90
47576;DHT22;33304;52.456;13.328;2023-01-01T06:03:19;14.90;17.90
47576;DHT22;33304;52.456;13.328;2023-01-01T06:05:46;14.90;18.20
47576;DHT22;33304;52.456;13.328;2023-01-01T06:08:13;14.90;18.10
47576;DHT22;33304;52.456;13.328;2023-01-01T06:10:40;14.90;18.20
47576;DHT22;33304;52.456;13.328;2023-01-01T06:13:07;14.90;18.20
47576;DHT22;33304;52.456;13.328;2023-01-01T06:15:34;14.90;17.90
47576;DHT22;33304;52.456;13.328;2023-01-01T06:18:02;14.90;18.10
47576;DHT22;33304;52.456;13.328;2023-01-01T06:20:30;14.90;17.90
47576;DHT22;33304;52.456;13.328;2023-01-01T06:22:57;14.90;17.90
47576;DHT22;33304;52.456;13.328;2023-01-01T06:25:24;14.90;18.10
47576;DHT22;33304;52.456;13.328;2023-01-01T06:27:51;14.90;18.40
47576;DHT22;33304;52.456;13.328;2023-01-01T06:30:18;14.80;18.20
47576;DHT22;33304;52.456;13.328;2023-01-01T06:32:45;14.90;18.20
47576;DHT22;33304;52.456;13.328;2023-01-01T06:35:12;14.90;18.40
47576;DHT22;33304;52.456;13.328;2023-01-01T06:37:41;14.90;18.10
47576;DHT22;33304;52.456;13.328;2023-01-01T06:40:08;14.90;18.20
47576;DHT22;33304;52.456;13.328;2023-01-01T06:42:35;15.00;18.10
47576;DHT22;33304;52.456;13.328;2023-01-01T06:45:03;14.90;18.20
47576;DHT22;33304;52.456;13.328;2023-01-01T06:47:32;14.90;18.10
47576;DHT22;33304;52.456;13.328;2023-01-01T06:49:59;15.00;17.90
47576;DHT22;33304;52.456;13.328;2023-01-01T06:52:26;15.00;17.90
47576;DHT22;33304;52.456;13.328;2023-01-01T06:54:55;14.90;18.20
47576;DHT22;33304;52.456;13.328;2023-01-01T06:57:22;14.90;18.00
47576;DHT22;33304;52.456;13.328;2023-01-01T06:59:49;15.00;17.90
47576;DHT22;33304;52.456;13.328;2023-01-01T07:02:17;14.90;18.00
47576;DHT22;33304;52.456;13.328;2023-01-01T07:04:44;15.00;18.20
47576;DHT22;33304;52.456;13.328;2023-01-01T07:07:11;15.00;18.00
47576;DHT22;33304;52.456;13.328;2023-01-01T07:09:38;15.10;18.10
47576;DHT22;33304;52.456;13.328;2023-01-01T07:12:07;15.00;18.10
47576;DHT22;33304;52.456;13.328;2023-01-01T07:14:34;15.00;18.00
47576;DHT22;33304;52.456;13.328;2023-01-01T07:17:01;14.90;18.20
47576;DHT22;33304;52.456;13.328;2023-01-01T07:19:28;14.90;18.30
47576;DHT22;33304;52.456;13.328;2023-01-01T07:21:55;14.90;17.90
47576;DHT22;33304;52.456;13.328;2023-01-01T07:24:22;15.00;18.10
47576;DHT22;33304;52.456;13.328;2023-01-01T07:26:50;15.00;18.10
47576;DHT22;33304;52.456;13.328;2023-01-01T07:29:18;15.00;18.00
47576;DHT22;33304;52.456;13.328;2023-01-01T07:31:45;15.00;17.90
47576;DHT22;33304;52.456;13.328;2023-01-01T07:34:16;15.00;18.00
47576;DHT22;33304;52.456;13.328;2023-01-01T07:36:44;15.00;18.10
47576;DHT22;33304;52.456;13.328;2023-01-01T07:39:11;14.90;17.90
47576;DHT22;33304;52.456;13.328;2023-01-01T07:41:38;15.00;18.00
47576;DHT22;33304;52.456;13.328;2023-01-01T07:44:05;15.00;17.80
47576;DHT22;33304;52.456;13.328;2023-01-01T07:46:35;15.00;17.80
47576;DHT22;33304;52.456;13.328;2023-01-01T07:49:02;15.00;17.70
47576;DHT22;33304;52.456;13.328;2023-01-01T07:51:29;15.20;17.30
47576;DHT22;33304;52.456;13.328;2023-01-01T07:53:56;15.00;17.50
47576;DHT22;33304;52.456;13.328;2023-01-01T07:56:24;15.10;17.50
47576;DHT22;33304;52.456;13.328;2023-01-01T07:58:51;15.20;17.50
47576;DHT22;33304;52.456;13.328;2023-01-01T08:01:18;15.10;17.50
47576;DHT22;33304;52.456;13.328;2023-01-01T08:03:50;15.20;17.50
47576;DHT22;33304;52.456;13.328;2023-01-01T08:06:18;15.10;17.70
47576;DHT22;33304;52.456;13.328;2023-01-01T08:08:47;15.10;18.30
47576;DHT22;33304;52.456;13.328;2023-01-01T08:11:16;15.10;17.70
47576;DHT22;33304;52.456;13.328;2023-01-01T08:13:43;15.10;17.40
47576;DHT22;33304;52.456;13.328;2023-01-01T08:16:10;15.20;17.30
47576;DHT22;33304;52.456;13.328;2023-01-01T08:18:37;15.20;17.70
47576;DHT22;33304;52.456;13.328;2023-01-01T08:21:05;15.20;17.80
47576;DHT22;33304;52.456;13.328;2023-01-01T08:23:32;15.10;17.80
47576;DHT22;33304;52.456;13.328;2023-01-01T08:26:00;15.20;17.70
47576;DHT22;33304;52.456;13.328;2023-01-01T08:28:28;15.20;17.50
47576;DHT22;33304;52.456;13.328;2023-01-01T08:30:56;15.20;17.60
47576;DHT22;33304;52.456;13.328;2023-01-01T08:33:24;15.30;17.40
47576;DHT22;33304;52.456;13.328;2023-01-01T08:35:51;15.20;18.20
47576;DHT22;33304;52.456;13.328;2023-01-01T08:38:19;15.20;17.70
47576;DHT22;33304;52.456;13.328;2023-01-01T08:40:46;15.20;17.90
47576;DHT22;33304;52.456;13.328;2023-01-01T08:43:13;15.20;17.90
47576;DHT22;33304;52.456;13.328;2023-01-01T08:45:41;15.20;17.90
47576;DHT22;33304;52.456;13.328;2023-01-01T08:48:08;15.20;18.00
47576;DHT22;33304;52.456;13.328;2023-01-01T08:50:35;15.20;17.90
47576;DHT22;33304;52.456;13.328;2023-01-01T08:53:03;15.20;18.10
47576;DHT22;33304;52.456;13.328;2023-01-01T08:55:31;15.20;18.10
47576;DHT22;33304;52.456;13.328;2023-01-01T08:57:58;15.20;18.10
47576;DHT22;33304;52.456;13.328;2023-01-01T09:00:25;15.20;18.00
47576;DHT22;33304;52.456;13.328;2023-01-01T09:02:52;15.30;17.90
47576;DHT22;33304;52.456;13.328;2023-01-01T09:05:19;15.20;18.00
47576;DHT22;33304;52.456;13.328;2023-01-01T09:07:47;15.30;18.20
47576;DHT22;33304;52.456;13.328;2023-01-01T09:10:14;15.30;17.90
47576;DHT22;33304;52.456;13.328;2023-01-01T09:12:42;15.30;17.70
47576;DHT22;33304;52.456;13.328;2023-01-01T09:15:13;15.40;17.90
47576;DHT22;33304;52.456;13.328;2023-01-01T09:17:41;15.30;18.00
47576;DHT22;33304;52.456;13.328;2023-01-01T09:20:09;15.30;17.80
47576;DHT22;33304;52.456;13.328;2023-01-01T09:22:36;15.40;18.00
47576;DHT22;33304;52.456;13.328;2023-01-01T09:25:03;15.40;17.70
47576;DHT22;33304;52.456;13.328;2023-01-01T09:27:30;15.40;18.00
47576;DHT22;33304;52.456;13.328;2023-01-01T09:29:59;15.30;18.30
47576;DHT22;33304;52.456;13.328;2023-01-01T09:32:26;15.30;18.30
47576;DHT22;33304;52.456;13.328;2023-01-01T09:34:53;15.40;18.10
47576;DHT22;33304;52.456;13.328;2023-01-01T09:37:21;15.40;18.10
47576;DHT22;33304;52.456;13.328;2023-01-01T09:39:48;15.40;18.10
47576;DHT22;33304;52.456;13.328;2023-01-01T09:42:24;15.40;17.80
47576;DHT22;33304;52.456;13.328;2023-01-01T09:47:49;15.50;18.00
47576;DHT22;33304;52.456;13.328;2023-01-01T09:50:20;15.50;17.70
47576;DHT22;33304;52.456;13.328;2023-01-01T09:52:51;15.50;17.90
47576;DHT22;33304;52.456;13.328;2023-01-01T09:55:26;15.50;17.70
47576;DHT22;33304;52.456;13.328;2023-01-01T09:57:54;15.60;17.60
47576;DHT22;33304;52.456;13.328;2023-01-01T10:00:22;15.70;17.80
47576;DHT22;33304;52.456;13.328;2023-01-01T10:03:09;15.70;17.50
47576;DHT22;33304;52.456;13.328;2023-01-01T10:05:47;15.70;18.00
47576;DHT22;33304;52.456;13.328;2023-01-01T10:08:22;15.70;18.00
47576;DHT22;33304;52.456;13.328;2023-01-01T10:10:59;15.70;17.80
47576;DHT22;33304;52.456;13.328;2023-01-01T10:13:34;15.80;17.90
47576;DHT22;33304;52.456;13.328;2023-01-01T10:16:08;15.80;17.50
47576;DHT22;33304;52.456;13.328;2023-01-01T10:18:41;15.90;17.90
47576;DHT22;33304;52.456;13.328;2023-01-01T10:21:13;15.80;17.40
47576;DHT22;33304;52.456;13.328;2023-01-01T10:23:43;15.80;17.40
47576;DHT22;33304;52.456;13.328;2023-01-01T10:26:15;15.80;17.30
47576;DHT22;33304;52.456;13.328;2023-01-01T10:28:48;15.90;17.70
47576;DHT22;33304;52.456;13.328;2023-01-01T10:31:23;15.90;17.50
47576;DHT22;33304;52.456;13.328;2023-01-01T10:33:53;15.90;17.30
47576;DHT22;33304;52.456;13.328;2023-01-01T10:36:21;15.90;18.00
47576;DHT22;33304;52.456;13.328;2023-01-01T10:38:49;15.80;17.30
47576;DHT22;33304;52.456;13.328;2023-01-01T10:41:16;15.80;17.50
47576;DHT22;33304;52.456;13.328;2023-01-01T10:43:44;15.80;17.60
47576;DHT22;33304;52.456;13.328;2023-01-01T10:46:13;15.80;17.40
47576;DHT22;33304;52.456;13.328;2023-01-01T10:49:04;15.80;17.30
47576;DHT22;33304;52.456;13.328;2023-01-01T10:51:32;15.90;17.30
47576;DHT22;33304;52.456;13.328;2023-01-01T10:54:01;15.90;17.40
47576;DHT22;33304;52.456;13.328;2023-01-01T10:56:39;15.90;17.40
47576;DHT22;33304;52.456;13.328;2023-01-01T10:59:32;15.90;17.40
47576;DHT22;33304;52.456;13.328;2023-01-01T11:02:16;15.90;17.10
47576;DHT22;33304;52.456;13.328;2023-01-01T11:04:45;16.00;17.10
47576;DHT22;33304;52.456;13.328;2023-01-01T11:07:20;16.00;17.00
47576;DHT22;33304;52.456;13.328;2023-01-01T11:09:50;16.00;17.00
47576;DHT22;33304;52.456;13.328;2023-01-01T11:12:20;16.00;17.30
47576;DHT22;33304;52.456;13.328;2023-01-01T11:14:51;16.00;17.10
47576;DHT22;33304;52.456;13.328;2023-01-01T11:17:22;16.00;16.90
47576;DHT22;33304;52.456;13.328;2023-01-01T11:19:52;16.10;16.60
47576;DHT22;33304;52.456;13.328;2023-01-01T11:22:37;16.10;16.60
47576;DHT22;33304;52.456;13.328;2023-01-01T11:25:19;16.10;16.60
47576;DHT22;33304;52.456;13.328;2023-01-01T11:27:47;16.10;16.70
47576;DHT22;33304;52.456;13.328;2023-01-01T11:30:23;16.10;16.60
47576;DHT22;33304;52.456;13.328;2023-01-01T11:32:54;16.10;16.60
47576;DHT22;33304;52.456;13.328;2023-01-01T11:35:26;16.10;16.60
47576;DHT22;33304;52.456;13.328;2023-01-01T11:37:55;16.10;16.60
47576;DHT22;33304;52.456;13.328;2023-01-01T11:40:24;16.10;16.60
47576;DHT22;33304;52.456;13.328;2023-01-01T11:42:56;16.10;16.60
47576;DHT22;33304;52.456;13.328;2023-01-01T11:45:25;16.10;16.60
47576;DHT22;33304;52.456;13.328;2023-01-01T11:47:58;16.20;16.70
47576;DHT22;33304;52.456;13.328;2023-01-01T11:50:31;16.20;16.70
47576;DHT22;33304;52.456;13.328;2023-01-01T11:53:16;16.20;16.70
47576;DHT22;33304;52.456;13.328;2023-01-01T11:55:47;16.10;16.60
47576;DHT22;33304;52.456;13.328;2023-01-01T11:58:20;16.20;16.70
47576;DHT22;33304;52.456;13.328;2023-01-01T12:00:53;16.30;16.80
47576;DHT22;33304;52.456;13.328;2023-01-01T12:03:24;16.20;16.70
47576;DHT22;33304;52.456;13.328;2023-01-01T12:05:58;16.20;16.70
47576;DHT22;33304;52.456;13.328;2023-01-01T12:08:34;16.20;16.70
47576;DHT22;33304;52.456;13.328;2023-01-01T12:11:09;16.20;16.70
47576;DHT22;33304;52.456;13.328;2023-01-01T12:13:44;16.20;16.70
47576;DHT22;33304;52.456;13.328;2023-01-01T12:16:15;16.20;16.70
47576;DHT22;33304;52.456;13.328;2023-01-01T12:18:47;16.20;16.70
47576;DHT22;33304;52.456;13.328;2023-01-01T12:21:22;16.10;16.60
47576;DHT22;33304;52.456;13.328;2023-01-01T12:23:51;16.20;16.70
47576;DHT22;33304;52.456;13.328;2023-01-01T12:26:22;16.20;16.70
47576;DHT22;33304;52.456;13.328;2023-01-01T12:29:13;16.20;16.70
47576;DHT22;33304;52.456;13.328;2023-01-01T12:31:48;16.20;16.70
47576;DHT22;33304;52.456;13.328;2023-01-01T12:34:22;16.10;17.30
47576;DHT22;33304;52.456;13.328;2023-01-01T12:36:59;16.10;17.10
47576;DHT22;33304;52.456;13.328;2023-01-01T12:40:23;16.10;17.50
47576;DHT22;33304;52.456;13.328;2023-01-01T12:43:00;16.10;17.40
47576;DHT22;33304;52.456;13.328;2023-01-01T12:45:51;16.10;17.30
47576;DHT22;33304;52.456;13.328;2023-01-01T12:48:40;16.00;17.60
47576;DHT22;33304;52.456;13.328;2023-01-01T12:51:18;16.10;17.60
47576;DHT22;33304;52.456;13.328;2023-01-01T12:54:00;16.10;17.70
47576;DHT22;33304;52.456;13.328;2023-01-01T12:56:34;16.00;18.10
47576;DHT22;33304;52.456;13.328;2023-01-01T12:59:05;16.00;18.30
47576;DHT22;33304;52.456;13.328;2023-01-01T13:01:35;16.00;18.10
47576;DHT22;33304;52.456;13.328;2023-01-01T13:04:04;16.00;18.20
47576;DHT22;33304;52.456;13.328;2023-01-01T13:06:38;15.90;18.40
47576;DHT22;33304;52.456;13.328;2023-01-01T13:09:11;15.90;18.50
47576;DHT22;33304;52.456;13.328;2023-01-01T13:11:40;16.00;18.40
47576;DHT22;33304;52.456;13.328;2023-01-01T13:14:08;16.00;18.40
47576;DHT22;33304;52.456;13.328;2023-01-01T13:16:37;16.00;18.50
47576;DHT22;33304;52.456;13.328;2023-01-01T13:19:20;16.00;18.80
47576;DHT22;33304;52.456;13.328;2023-01-01T13:21:49;16.00;18.60
47576;DHT22;33304;52.456;13.328;2023-01-01T13:24:20;15.80;18.80
47576;DHT22;33304;52.456;13.328;2023-01-01T13:26:48;15.90;19.10
47576;DHT22;33304;52.456;13.328;2023-01-01T13:29:43;15.90;18.90
47576;DHT22;33304;52.456;13.328;2023-01-01T13:32:12;15.90;18.90
47576;DHT22;33304;52.456;13.328;2023-01-01T13:35:15;15.90;18.90
47576;DHT22;33304;52.456;13.328;2023-01-01T13:37:44;15.90;19.20
47576;DHT22;33304;52.456;13.328;2023-01-01T13:40:31;15.80;19.10
47576;DHT22;33304;52.456;13.328;2023-01-01T13:43:15;15.80;19.60
47576;DHT22;33304;52.456;13.328;2023-01-01T13:45:45;15.80;19.80
47576;DHT22;33304;52.456;13.328;2023-01-01T13:48:30;15.70;19.60
47576;DHT22;33304;52.456;13.328;2023-01-01T13:51:16;15.70;19.70
47576;DHT22;33304;52.456;13.328;2023-01-01T13:54:01;15.70;19.80
47576;DHT22;33304;52.456;13.328;2023-01-01T13:56:43;15.70;20.00
47576;DHT22;33304;52.456;13.328;2023-01-01T13:59:46;15.70;19.90
47576;DHT22;33304;52.456;13.328;2023-01-01T14:02:22;15.70;19.80
47576;DHT22;33304;52.456;13.328;2023-01-01T14:04:53;15.70;20.20
47576;DHT22;33304;52.456;13.328;2023-01-01T14:07:30;15.60;20.20
47576;DHT22;33304;52.456;13.328;2023-01-01T14:10:20;15.70;20.40
47576;DHT22;33304;52.456;13.328;2023-01-01T14:12:50;15.60;20.60
47576;DHT22;33304;52.456;13.328;2023-01-01T14:15:26;15.50;20.70
47576;DHT22;33304;52.456;13.328;2023-01-01T14:17:55;15.40;21.00
47576;DHT22;33304;52.456;13.328;2023-01-01T14:20:29;15.40;21.10
47576;DHT22;33304;52.456;13.328;2023-01-01T14:23:01;15.40;21.30
47576;DHT22;33304;52.456;13.328;2023-01-01T14:25:30;15.40;21.50
47576;DHT22;33304;52.456;13.328;2023-01-01T14:27:59;15.30;22.20
47576;DHT22;33304;52.456;13.328;2023-01-01T14:30:28;15.40;21.70
47576;DHT22;33304;52.456;13.328;2023-01-01T14:32:56;15.30;21.80
47576;DHT22;33304;52.456;13.328;2023-01-01T14:35:24;15.20;22.10
47576;DHT22;33304;52.456;13.328;2023-01-01T14:37:51;15.20;22.20
47576;DHT22;33304;52.456;13.328;2023-01-01T14:40:21;15.20;22.50
47576;DHT22;33304;52.456;13.328;2023-01-01T14:42:56;15.20;22.30
47576;DHT22;33304;52.456;13.328;2023-01-01T14:45:25;15.10;22.50
47576;DHT22;33304;52.456;13.328;2023-01-01T14:47:54;15.10;22.60
47576;DHT22;33304;52.456;13.328;2023-01-01T14:50:25;15.10;22.60
47576;DHT22;33304;52.456;13.328;2023-01-01T14:52:56;15.10;22.80
47576;DHT22;33304;52.456;13.328;2023-01-01T14:55:26;15.10;23.10
47576;DHT22;33304;52.456;13.328;2023-01-01T14:57:57;15.10;23.10
47576;DHT22;33304;52.456;13.328;2023-01-01T15:00:28;15.10;23.20
47576;DHT22;33304;52.456;13.328;2023-01-01T15:03:04;15.00;23.30
47576;DHT22;33304;52.456;13.328;2023-01-01T15:05:33;14.90;23.90
47576;DHT22;33304;52.456;13.328;2023-01-01T15:08:02;14.80;24.10
47576;DHT22;33304;52.456;13.328;2023-01-01T15:10:31;14.80;24.30
47576;DHT22;33304;52.456;13.328;2023-01-01T15:12:59;14.80;24.30
47576;DHT22;33304;52.456;13.328;2023-01-01T15:15:39;14.70;24.70
47576;DHT22;33304;52.456;13.328;2023-01-01T15:18:35;14.70;25.30
47576;DHT22;33304;52.456;13.328;2023-01-01T15:21:04;14.60;25.20
47576;DHT22;33304;52.456;13.328;2023-01-01T15:23:33;14.60;25.20
47576;DHT22;33304;52.456;13.328;2023-01-01T15:26:00;14.50;25.10
47576;DHT22;33304;52.456;13.328;2023-01-01T15:28:27;14.50;25.70
47576;DHT22;33304;52.456;13.328;2023-01-01T15:30:56;14.40;25.10
47576;DHT22;33304;52.456;13.328;2023-01-01T15:33:24;14.40;25.10
47576;DHT22;33304;52.456;13.328;2023-01-01T15:35:52;14.50;25.10
47576;DHT22;33304;52.456;13.328;2023-01-01T15:38:27;14.60;25.20
47576;DHT22;33304;52.456;13.328;2023-01-01T15:40:59;14.50;25.10
47576;DHT22;33304;52.456;13.328;2023-01-01T15:43:27;14.50;25.10